createdAt,value
2023-12-18T00:00:38.228Z,18.00
2023-12-18T00:03:05.798Z,16.80
2023-12-18T00:05:32.961Z,17.10
2023-12-18T00:07:59.703Z,17.60
2023-12-18T00:10:26.427Z,20.80
2023-12-18T00:12:53.094Z,17.00
2023-12-18T00:15:19.840Z,16.00
2023-12-18T00:17:47.139Z,16.10
2023-12-18T00:20:14.180Z,17.30
2023-12-18T00:22:40.844Z,14.40
2023-12-18T00:25:08.099Z,15.60
2023-12-18T00:27:34.944Z,18.10
2023-12-18T00:30:01.832Z,19.00
2023-12-18T00:32:28.675Z,13.60
2023-12-18T00:34:55.548Z,16.90
2023-12-18T00:37:23.390Z,19.10
2023-12-18T00:39:50.082Z,16.00
2023-12-18T00:42:17.259Z,16.80
2023-12-18T00:44:43.975Z,15.70
2023-12-18T00:47:11.095Z,19.50
2023-12-18T00:49:37.875Z,16.90
2023-12-18T00:52:04.902Z,18.20
2023-12-18T00:54:31.671Z,16.00
2023-12-18T00:56:58.378Z,17.00
2023-12-18T00:59:25.049Z,13.90
2023-12-18T01:01:51.809Z,20.20
2023-12-18T01:04:18.676Z,16.50
2023-12-18T01:06:45.576Z,16.70
2023-12-18T01:09:14.220Z,14.30
2023-12-18T01:11:41.100Z,16.30
2023-12-18T01:14:09.834Z,15.70
2023-12-18T01:16:36.673Z,15.00
2023-12-18T01:19:04.082Z,15.40
2023-12-18T01:21:31.412Z,17.00
2023-12-18T01:23:58.178Z,17.10
2023-12-18T01:26:24.843Z,15.30
2023-12-18T01:28:51.508Z,16.80
2023-12-18T01:31:25.521Z,15.20
2023-12-18T01:33:54.833Z,15.20
2023-12-18T01:36:22.991Z,14.80
2023-12-18T01:38:49.924Z,14.80
2023-12-18T01:41:17.411Z,15.70
2023-12-18T01:43:44.699Z,15.60
2023-12-18T01:46:18.772Z,16.30
2023-12-18T01:48:46.914Z,15.70
2023-12-18T01:51:14.358Z,14.00
2023-12-18T01:53:50.076Z,14.30
2023-12-18T01:56:19.428Z,14.30
2023-12-18T01:58:46.674Z,17.50
2023-12-18T02:01:14.550Z,15.50
2023-12-18T02:03:42.203Z,15.20
2023-12-18T02:06:09.195Z,14.40
2023-12-18T02:08:36.387Z,13.60
2023-12-18T02:11:03.485Z,14.10
2023-12-18T02:13:30.395Z,12.60
2023-12-18T02:15:59.081Z,15.40
2023-12-18T02:18:26.566Z,16.30
2023-12-18T02:20:53.625Z,16.20
2023-12-18T02:23:20.335Z,12.90
2023-12-18T02:25:47.187Z,13.40
2023-12-18T02:28:16.580Z,16.20
2023-12-18T02:30:43.608Z,14.30
2023-12-18T02:33:10.974Z,16.00
2023-12-18T02:35:39.223Z,15.10
2023-12-18T02:38:06.009Z,15.70
2023-12-18T02:40:32.694Z,13.90
2023-12-18T02:42:59.421Z,14.30
2023-12-18T02:45:27.337Z,13.40
2023-12-18T02:47:54.108Z,14.70
2023-12-18T02:50:20.820Z,13.00
2023-12-18T02:52:47.616Z,15.60
2023-12-18T02:55:14.599Z,13.30
2023-12-18T02:57:42.078Z,14.50
2023-12-18T03:00:10.058Z,16.30
2023-12-18T03:02:39.241Z,14.20
2023-12-18T03:05:07.083Z,16.90
2023-12-18T03:07:33.833Z,12.50
2023-12-18T03:10:00.579Z,15.30
2023-12-18T03:12:27.447Z,15.30
2023-12-18T03:14:54.191Z,15.10
2023-12-18T03:17:26.926Z,13.10
2023-12-18T03:19:54.002Z,13.70
2023-12-18T03:22:21.476Z,14.40
2023-12-18T03:24:48.161Z,16.60
2023-12-18T03:27:15.094Z,12.90
2023-12-18T03:29:41.953Z,11.60
2023-12-18T03:32:08.646Z,14.60
2023-12-18T03:34:35.614Z,15.20
2023-12-18T03:37:02.449Z,14.80
2023-12-18T03:39:29.498Z,14.10
2023-12-18T03:41:58.340Z,14.20
2023-12-18T03:44:25.198Z,15.20
2023-12-18T03:46:52.306Z,12.50
2023-12-18T03:49:19.273Z,15.60
2023-12-18T03:51:46.080Z,14.60
2023-12-18T03:54:12.869Z,12.60
2023-12-18T03:56:39.550Z,13.40
2023-12-18T03:59:06.226Z,12.50
2023-12-18T04:01:34.508Z,14.40
2023-12-18T04:04:01.407Z,14.50
2023-12-18T04:06:28.304Z,14.90
2023-12-18T04:08:55.699Z,13.60
2023-12-18T04:11:25.222Z,14.10
2023-12-18T04:13:52.667Z,12.80
2023-12-18T04:16:19.329Z,14.30
2023-12-18T04:18:46.269Z,11.90
2023-12-18T04:21:13.365Z,12.70
2023-12-18T04:23:40.190Z,14.50
2023-12-18T04:26:06.911Z,13.20
2023-12-18T04:28:33.618Z,14.60
2023-12-18T04:31:01.232Z,13.40
2023-12-18T04:33:28.246Z,13.00
2023-12-18T04:35:55.023Z,14.00
2023-12-18T04:38:21.686Z,14.10
2023-12-18T04:40:48.399Z,15.60
2023-12-18T04:43:15.084Z,14.40
2023-12-18T04:45:42.005Z,16.90
2023-12-18T04:48:09.630Z,15.40
2023-12-18T04:50:36.430Z,13.50
2023-12-18T04:53:03.208Z,15.30
2023-12-18T04:55:29.915Z,14.60
2023-12-18T04:57:57.940Z,16.00
2023-12-18T05:00:24.781Z,17.80
2023-12-18T05:02:51.631Z,15.00
2023-12-18T05:05:18.330Z,17.20
2023-12-18T05:07:45.008Z,13.90
2023-12-18T05:10:11.709Z,16.10
2023-12-18T05:12:38.511Z,15.70
2023-12-18T05:15:08.817Z,18.00
2023-12-18T05:17:37.628Z,15.50
2023-12-18T05:20:07.468Z,17.60
2023-12-18T05:22:35.357Z,14.90
2023-12-18T05:25:02.060Z,17.00
2023-12-18T05:27:28.926Z,16.50
2023-12-18T05:29:55.998Z,15.40
2023-12-18T05:32:22.745Z,15.20
2023-12-18T05:34:50.603Z,16.80
2023-12-18T05:37:17.524Z,17.40
2023-12-18T05:39:45.540Z,18.40
2023-12-18T05:42:12.680Z,17.50
2023-12-18T05:44:39.386Z,17.70
2023-12-18T05:47:06.112Z,15.60
2023-12-18T05:49:33.020Z,17.70
2023-12-18T05:52:00.215Z,18.30
2023-12-18T05:54:27.082Z,17.50
2023-12-18T05:56:53.827Z,13.60
2023-12-18T05:59:20.750Z,17.20
2023-12-18T06:01:47.585Z,15.50
2023-12-18T06:04:14.467Z,19.10
2023-12-18T06:06:41.432Z,19.50
2023-12-18T06:09:08.393Z,18.10
2023-12-18T06:11:35.175Z,18.00
2023-12-18T06:14:01.865Z,17.90
2023-12-18T06:16:28.572Z,17.10
2023-12-18T06:19:00.843Z,16.90
2023-12-18T06:21:28.006Z,17.40
2023-12-18T06:23:54.786Z,18.40
2023-12-18T06:26:21.461Z,18.60
2023-12-18T06:28:48.160Z,16.30
2023-12-18T06:31:15.012Z,19.40
2023-12-18T06:33:42.675Z,20.80
2023-12-18T06:36:09.545Z,19.70
2023-12-18T06:38:36.414Z,20.10
2023-12-18T06:41:03.200Z,18.60
2023-12-18T06:43:29.934Z,18.90
2023-12-18T06:45:56.759Z,18.80
2023-12-18T06:48:24.955Z,17.20
2023-12-18T06:50:51.782Z,21.80
2023-12-18T06:53:18.473Z,18.90
2023-12-18T06:55:45.178Z,19.10
2023-12-18T06:58:11.910Z,20.80
2023-12-18T07:00:41.221Z,19.30
2023-12-18T07:05:35.924Z,21.10
2023-12-18T07:08:03.228Z,19.70
2023-12-18T07:10:29.943Z,18.40
2023-12-18T07:12:56.892Z,23.90
2023-12-18T07:15:25.881Z,16.80
2023-12-18T07:17:53.804Z,17.70
2023-12-18T07:20:21.107Z,17.90
2023-12-18T07:22:48.155Z,19.30
2023-12-18T07:25:15.279Z,20.40
2023-12-18T07:27:42.578Z,20.50
2023-12-18T07:30:11.012Z,18.10
2023-12-18T07:32:39.786Z,18.80
2023-12-18T07:35:07.477Z,18.90
2023-12-18T07:37:34.291Z,21.60
2023-12-18T07:40:01.408Z,22.00
2023-12-18T07:42:28.435Z,19.80
2023-12-18T07:44:55.459Z,18.30
2023-12-18T07:47:22.724Z,21.00
2023-12-18T07:49:51.142Z,21.60
2023-12-18T07:52:18.797Z,21.10
2023-12-18T07:54:45.890Z,21.30
2023-12-18T07:57:12.982Z,21.20
2023-12-18T07:59:41.503Z,26.00
2023-12-18T08:02:09.547Z,18.80
2023-12-18T08:04:36.805Z,21.40
2023-12-18T08:07:04.250Z,20.80
2023-12-18T08:09:31.180Z,18.80
2023-12-18T08:11:58.466Z,19.50
2023-12-18T08:14:25.394Z,21.20
2023-12-18T08:16:52.125Z,19.70
2023-12-18T08:19:19.506Z,24.20
2023-12-18T08:21:46.691Z,20.70
2023-12-18T08:24:13.585Z,22.10
2023-12-18T08:26:40.606Z,19.20
2023-12-18T08:29:10.051Z,23.00
2023-12-18T08:31:39.152Z,19.90
2023-12-18T08:34:07.084Z,21.20
2023-12-18T08:36:36.270Z,19.00
2023-12-18T08:39:10.244Z,26.90
2023-12-18T08:41:38.579Z,24.40
2023-12-18T08:44:10.035Z,21.50
2023-12-18T08:46:37.252Z,20.40
2023-12-18T08:49:04.207Z,21.70
2023-12-18T08:51:31.157Z,23.20
2023-12-18T08:53:58.096Z,20.10
2023-12-18T08:56:26.130Z,22.10
2023-12-18T08:58:53.990Z,19.80
2023-12-18T09:01:21.105Z,23.00
2023-12-18T09:03:53.482Z,22.80
2023-12-18T09:06:22.133Z,23.70
2023-12-18T09:08:48.935Z,19.90
2023-12-18T09:11:16.267Z,20.40
2023-12-18T09:13:43.212Z,19.60
2023-12-18T09:16:10.037Z,24.50
2023-12-18T09:18:36.833Z,22.40
2023-12-18T09:21:03.893Z,21.30
2023-12-18T09:23:30.689Z,23.00
2023-12-18T09:25:58.221Z,20.00
2023-12-18T09:28:24.939Z,22.30
2023-12-18T09:30:53.023Z,22.70
2023-12-18T09:33:20.111Z,20.90
2023-12-18T09:35:46.967Z,21.90
2023-12-18T09:38:14.341Z,21.40
2023-12-18T09:40:45.850Z,19.60
2023-12-18T09:43:19.856Z,19.50
2023-12-18T09:45:49.671Z,19.70
2023-12-18T09:50:47.569Z,19.30
2023-12-18T09:53:17.746Z,19.00
2023-12-18T09:55:46.861Z,24.60
2023-12-18T09:58:15.993Z,20.50
2023-12-18T10:00:43.433Z,18.40
2023-12-18T10:03:10.797Z,18.80
2023-12-18T10:05:37.673Z,20.30
2023-12-18T10:08:05.482Z,20.80
2023-12-18T10:10:32.320Z,19.50
2023-12-18T10:12:59.158Z,21.80
2023-12-18T10:15:26.822Z,23.80
2023-12-18T10:17:54.977Z,21.80
2023-12-18T10:20:21.800Z,23.00
2023-12-18T10:22:48.478Z,21.00
2023-12-18T10:25:15.367Z,23.80
2023-12-18T10:27:44.053Z,20.80
2023-12-18T10:30:12.132Z,21.10
2023-12-18T10:32:42.025Z,19.80
2023-12-18T10:35:09.714Z,19.50
2023-12-18T10:37:38.425Z,22.40
2023-12-18T10:40:12.905Z,23.70
2023-12-18T10:42:43.311Z,21.90
2023-12-18T10:45:10.475Z,20.80
2023-12-18T10:47:38.058Z,19.90
2023-12-18T10:50:06.685Z,21.00
2023-12-18T10:52:34.802Z,23.80
2023-12-18T10:55:06.105Z,21.90
2023-12-18T10:57:38.274Z,19.70
2023-12-18T11:00:09.642Z,21.70
2023-12-18T11:02:37.680Z,22.00
2023-12-18T11:05:07.304Z,23.20
2023-12-18T11:07:34.681Z,20.20
2023-12-18T11:10:01.843Z,23.00
2023-12-18T11:12:30.194Z,22.80
2023-12-18T11:15:04.264Z,24.40
2023-12-18T11:18:06.646Z,24.40
2023-12-18T11:20:38.390Z,26.70
2023-12-18T11:23:06.549Z,22.40
2023-12-18T11:25:36.421Z,24.10
2023-12-18T11:28:07.262Z,27.10
2023-12-18T11:30:35.896Z,21.50
2023-12-18T11:33:07.539Z,26.90
2023-12-18T11:35:37.094Z,21.40
2023-12-18T11:38:15.109Z,23.10
2023-12-18T11:41:00.992Z,27.10
2023-12-18T11:43:39.828Z,25.90
2023-12-18T11:46:17.232Z,22.60
2023-12-18T11:48:47.706Z,19.40
2023-12-18T11:51:17.037Z,20.60
2023-12-18T11:53:44.117Z,24.20
2023-12-18T11:56:12.990Z,22.20
2023-12-18T11:58:45.194Z,22.80
2023-12-18T12:01:13.952Z,20.30
2023-12-18T12:03:41.878Z,22.40
2023-12-18T12:06:09.856Z,24.00
2023-12-18T12:09:03.377Z,19.70
2023-12-18T12:11:30.421Z,21.30
2023-12-18T12:13:57.366Z,20.80
2023-12-18T12:16:25.049Z,21.00
2023-12-18T12:18:52.693Z,20.40
2023-12-18T12:21:20.012Z,18.90
2023-12-18T12:23:50.950Z,21.60
2023-12-18T12:26:19.678Z,23.60
2023-12-18T12:28:49.217Z,21.30
2023-12-18T12:31:20.848Z,23.60
2023-12-18T12:33:50.177Z,25.20
2023-12-18T12:36:20.597Z,25.70
2023-12-18T12:38:47.474Z,21.60
2023-12-18T12:41:15.634Z,20.90
2023-12-18T12:43:44.430Z,21.40
2023-12-18T12:46:15.533Z,22.90
2023-12-18T12:48:47.007Z,21.20
2023-12-18T12:51:15.688Z,22.60
2023-12-18T12:53:43.237Z,22.10
2023-12-18T12:56:12.130Z,23.10
2023-12-18T12:58:39.051Z,25.60
2023-12-18T13:01:08.533Z,22.60
2023-12-18T13:03:38.868Z,20.60
2023-12-18T13:08:34.701Z,23.10
2023-12-18T13:11:05.024Z,19.90
2023-12-18T13:13:32.313Z,23.00
2023-12-18T13:16:00.917Z,22.00
2023-12-18T13:18:28.826Z,26.40
2023-12-18T13:20:55.634Z,26.50
2023-12-18T13:23:23.815Z,23.00
2023-12-18T13:25:51.493Z,21.10
2023-12-18T13:28:18.228Z,26.50
2023-12-18T13:30:45.216Z,23.90
2023-12-18T13:33:12.224Z,21.60
2023-12-18T13:35:39.350Z,24.20
2023-12-18T13:38:06.191Z,29.40
2023-12-18T13:40:33.079Z,33.10
2023-12-18T13:42:59.840Z,25.80
2023-12-18T13:45:26.860Z,24.70
2023-12-18T13:47:55.551Z,22.50
2023-12-18T13:50:23.356Z,21.90
2023-12-18T13:52:50.155Z,25.60
2023-12-18T13:55:17.208Z,25.30
2023-12-18T13:57:48.812Z,24.40
2023-12-18T14:00:22.868Z,21.60
2023-12-18T14:02:53.774Z,25.00
2023-12-18T14:05:22.127Z,23.20
2023-12-18T14:07:48.939Z,26.50
2023-12-18T14:10:16.109Z,24.30
2023-12-18T14:12:43.178Z,23.60
2023-12-18T14:15:12.448Z,23.30
2023-12-18T14:17:39.532Z,28.10
2023-12-18T14:20:08.815Z,26.80
2023-12-18T14:22:35.611Z,24.00
2023-12-18T14:25:03.941Z,27.70
2023-12-18T14:27:33.679Z,27.00
2023-12-18T14:30:01.129Z,24.40
2023-12-18T14:32:28.178Z,26.20
2023-12-18T14:34:55.182Z,25.20
2023-12-18T14:37:22.303Z,25.00
2023-12-18T14:39:49.058Z,26.10
2023-12-18T14:42:15.939Z,23.20
2023-12-18T14:44:42.674Z,25.40
2023-12-18T14:47:10.303Z,29.00
2023-12-18T14:49:37.127Z,27.40
2023-12-18T14:52:04.416Z,25.70
2023-12-18T14:54:32.505Z,27.70
2023-12-18T14:56:59.603Z,28.10
2023-12-18T14:59:26.352Z,29.90
2023-12-18T15:01:55.945Z,26.70
2023-12-18T15:04:29.519Z,27.00
2023-12-18T15:06:58.925Z,26.40
2023-12-18T15:09:26.556Z,25.30
2023-12-18T15:11:53.409Z,25.60
2023-12-18T15:14:20.632Z,27.90
2023-12-18T15:16:48.671Z,27.70
2023-12-18T15:19:16.076Z,24.60
2023-12-18T15:21:43.030Z,25.90
2023-12-18T15:24:10.857Z,29.00
2023-12-18T15:26:39.301Z,32.40
2023-12-18T15:29:06.823Z,27.30
2023-12-18T15:31:33.772Z,25.90
2023-12-18T15:34:03.538Z,29.60
2023-12-18T15:36:33.196Z,25.70
2023-12-18T15:39:00.184Z,31.50
2023-12-18T15:41:27.706Z,25.90
2023-12-18T15:43:54.488Z,27.20
2023-12-18T15:46:21.291Z,29.70
2023-12-18T15:48:55.341Z,27.50
2023-12-18T15:51:23.250Z,26.20
2023-12-18T15:53:50.287Z,26.70
2023-12-18T15:56:17.058Z,30.10
2023-12-18T15:58:44.535Z,31.30
2023-12-18T16:01:13.212Z,30.00
2023-12-18T16:03:41.478Z,52.90
2023-12-18T16:06:08.314Z,46.00
2023-12-18T16:08:35.426Z,32.80
2023-12-18T16:11:02.859Z,34.10
2023-12-18T16:13:29.647Z,27.90
2023-12-18T16:15:56.559Z,27.50
2023-12-18T16:18:23.608Z,27.40
2023-12-18T16:20:50.607Z,25.80
2023-12-18T16:23:20.225Z,28.90
2023-12-18T16:25:47.110Z,26.30
2023-12-18T16:28:13.845Z,26.60
2023-12-18T16:30:45.178Z,32.90
2023-12-18T16:33:20.004Z,30.40
2023-12-18T16:35:47.018Z,27.90
2023-12-18T16:38:13.875Z,27.70
2023-12-18T16:40:40.650Z,29.70
2023-12-18T16:43:07.541Z,27.70
2023-12-18T16:45:34.481Z,26.50
2023-12-18T16:48:01.538Z,27.80
2023-12-18T16:50:28.360Z,24.00
2023-12-18T16:52:55.106Z,42.20
2023-12-18T16:55:21.857Z,32.40
2023-12-18T16:57:51.093Z,35.50
2023-12-18T17:00:19.665Z,30.70
2023-12-18T17:02:46.688Z,35.00
2023-12-18T17:05:13.582Z,42.50
2023-12-18T17:07:40.802Z,29.60
2023-12-18T17:10:08.087Z,35.00
2023-12-18T17:12:34.903Z,29.20
2023-12-18T17:15:01.795Z,29.60
2023-12-18T17:17:30.674Z,28.80
2023-12-18T17:19:57.749Z,27.40
2023-12-18T17:22:24.698Z,30.50
2023-12-18T17:24:53.727Z,37.20
2023-12-18T17:27:20.855Z,31.00
2023-12-18T17:29:50.137Z,32.00
2023-12-18T17:32:28.134Z,34.00
2023-12-18T17:35:00.746Z,36.90
2023-12-18T17:37:27.985Z,45.70
2023-12-18T17:39:55.197Z,33.70
2023-12-18T17:42:22.351Z,37.10
2023-12-18T17:44:49.089Z,35.00
2023-12-18T17:47:15.804Z,32.30
2023-12-18T17:49:43.726Z,29.30
2023-12-18T17:52:11.124Z,31.90
2023-12-18T17:54:38.470Z,30.50
2023-12-18T17:57:05.339Z,32.70
2023-12-18T17:59:32.129Z,29.00
2023-12-18T18:01:58.954Z,31.90
2023-12-18T18:04:25.820Z,31.50
2023-12-18T18:06:53.148Z,29.50
2023-12-18T18:09:19.965Z,30.60
2023-12-18T18:11:46.729Z,27.40
2023-12-18T18:14:13.563Z,31.80
2023-12-18T18:16:40.378Z,36.00
2023-12-18T18:19:09.130Z,36.10
2023-12-18T18:21:36.633Z,32.70
2023-12-18T18:24:04.061Z,37.30
2023-12-18T18:26:30.908Z,34.90
2023-12-18T18:28:57.804Z,29.30
2023-12-18T18:31:25.844Z,34.60
2023-12-18T18:33:53.303Z,29.20
2023-12-18T18:36:22.663Z,27.60
2023-12-18T18:38:49.576Z,34.40
2023-12-18T18:41:16.314Z,31.30
2023-12-18T18:43:43.135Z,27.30
2023-12-18T18:46:14.334Z,33.10
2023-12-18T18:48:42.298Z,30.10
2023-12-18T18:51:09.598Z,33.30
2023-12-18T18:53:36.778Z,33.60
2023-12-18T18:56:07.162Z,30.10
2023-12-18T18:58:37.289Z,28.00
2023-12-18T19:01:04.497Z,30.00
2023-12-18T19:03:31.690Z,29.00
2023-12-18T19:05:58.693Z,29.80
2023-12-18T19:08:26.701Z,32.70
2023-12-18T19:10:54.211Z,32.80
2023-12-18T19:13:22.661Z,33.30
2023-12-18T19:15:51.624Z,28.80
2023-12-18T19:18:19.887Z,28.40
2023-12-18T19:20:49.660Z,30.80
2023-12-18T19:23:16.593Z,30.40
2023-12-18T19:25:45.375Z,28.20
2023-12-18T19:28:16.225Z,33.00
2023-12-18T19:30:46.362Z,32.80
2023-12-18T19:33:13.503Z,30.70
2023-12-18T19:35:47.135Z,30.00
2023-12-18T19:38:13.981Z,31.10
2023-12-18T19:40:41.209Z,29.70
2023-12-18T19:43:09.679Z,30.60
2023-12-18T19:45:37.921Z,30.90
2023-12-18T19:48:05.346Z,36.00
2023-12-18T19:50:32.862Z,29.60
2023-12-18T19:52:59.767Z,30.70
2023-12-18T19:55:26.654Z,28.50
2023-12-18T19:57:53.501Z,32.30
2023-12-18T20:00:23.615Z,31.30
2023-12-18T20:05:17.350Z,30.50
2023-12-18T20:07:44.208Z,29.90
2023-12-18T20:10:11.944Z,31.70
2023-12-18T20:12:38.750Z,28.50
2023-12-18T20:15:06.457Z,29.90
2023-12-18T20:17:34.417Z,26.50
2023-12-18T20:20:01.380Z,26.60
2023-12-18T20:22:28.165Z,28.60
2023-12-18T20:24:55.372Z,28.10
2023-12-18T20:27:23.355Z,28.00
2023-12-18T20:29:50.275Z,28.60
2023-12-18T20:32:17.182Z,29.30
2023-12-18T20:34:44.422Z,26.70
2023-12-18T20:37:11.584Z,29.80
2023-12-18T20:39:38.349Z,28.20
2023-12-18T20:42:05.719Z,27.50
2023-12-18T20:44:32.524Z,30.20
2023-12-18T20:46:59.246Z,32.20
2023-12-18T20:49:27.642Z,31.60
2023-12-18T20:51:56.482Z,27.60
2023-12-18T20:54:23.914Z,32.20
2023-12-18T20:56:50.898Z,31.00
2023-12-18T20:59:17.626Z,31.20
2023-12-18T21:01:44.922Z,29.00
2023-12-18T21:04:11.989Z,31.40
2023-12-18T21:06:39.593Z,29.90
2023-12-18T21:09:06.402Z,32.10
2023-12-18T21:11:34.550Z,28.90
2023-12-18T21:14:01.306Z,29.70
2023-12-18T21:16:28.012Z,31.00
2023-12-18T21:18:54.853Z,31.10
2023-12-18T21:21:22.049Z,33.60
2023-12-18T21:23:48.944Z,28.60
2023-12-18T21:26:16.470Z,29.70
2023-12-18T21:28:44.292Z,31.10
2023-12-18T21:31:11.836Z,26.90
2023-12-18T21:33:39.502Z,28.80
2023-12-18T21:36:13.972Z,27.90
2023-12-18T21:38:40.813Z,27.10
2023-12-18T21:41:07.697Z,27.70
2023-12-18T21:43:34.453Z,30.30
2023-12-18T21:46:01.210Z,26.30
2023-12-18T21:48:28.267Z,25.30
2023-12-18T21:50:55.220Z,26.50
2023-12-18T21:53:23.990Z,27.50
2023-12-18T21:55:50.879Z,26.20
2023-12-18T21:58:17.572Z,23.90
2023-12-18T22:00:44.467Z,25.30
2023-12-18T22:03:11.547Z,25.50
2023-12-18T22:05:38.363Z,22.80
2023-12-18T22:08:06.506Z,26.80
2023-12-18T22:10:33.148Z,24.50
2023-12-18T22:13:00.069Z,24.90
2023-12-18T22:15:26.942Z,25.10
2023-12-18T22:17:53.786Z,27.00
2023-12-18T22:20:21.448Z,26.60
2023-12-18T22:22:49.539Z,24.30
2023-12-18T22:25:16.341Z,25.60
2023-12-18T22:27:43.432Z,26.80
2023-12-18T22:30:11.709Z,28.50
2023-12-18T22:32:39.244Z,27.00
2023-12-18T22:35:06.998Z,28.00
2023-12-18T22:37:34.229Z,27.00
2023-12-18T22:40:01.278Z,27.50
2023-12-18T22:42:28.504Z,27.10
2023-12-18T22:44:55.322Z,25.20
2023-12-18T22:47:24.777Z,27.80
2023-12-18T22:49:51.637Z,25.00
2023-12-18T22:52:18.626Z,26.90
2023-12-18T22:54:45.590Z,26.50
2023-12-18T22:57:12.436Z,24.20
2023-12-18T22:59:39.147Z,27.00
2023-12-18T23:02:05.966Z,28.60
2023-12-18T23:04:32.867Z,29.30
2023-12-18T23:06:59.902Z,31.40
2023-12-18T23:09:26.739Z,27.80
2023-12-18T23:11:54.668Z,27.20
2023-12-18T23:14:21.445Z,29.90
2023-12-18T23:16:48.132Z,30.20
2023-12-18T23:19:14.868Z,30.20
2023-12-18T23:21:42.137Z,27.60
2023-12-18T23:24:10.888Z,31.00
2023-12-18T23:26:38.276Z,29.60
2023-12-18T23:29:07.142Z,30.30
2023-12-18T23:31:35.595Z,30.50
2023-12-18T23:34:02.663Z,31.00
2023-12-18T23:36:29.497Z,27.80
2023-12-18T23:38:56.237Z,30.30
2023-12-18T23:41:22.982Z,29.20
2023-12-18T23:43:49.693Z,31.80
2023-12-18T23:46:16.545Z,33.00
2023-12-18T23:48:43.517Z,33.80
2023-12-18T23:51:10.295Z,31.90
2023-12-18T23:53:37.271Z,33.10
2023-12-18T23:56:06.440Z,35.10
2023-12-18T23:58:33.161Z,33.10
